Time;durP1;ratioP1;P1;durP2;ratioP2;P2;SDS_P1;SDS_P2;PMS_P1;PMS_P2;Temp;Humidity;BMP_temperature;BMP_pressure;BME280_temperature;BME280_humidity;BME280_pressure;Samples;Min_cycle;Max_cycle;Signal;HPM_P1;HPM_P2
2022/01/06 00:00:25;;;;;;;8.10;4.80;;;4.00;99.90;;;;;;5046780;28;20234;-70
2022/01/06 00:02:52;;;;;;;6.70;4.33;;;3.90;99.90;;;;;;5042875;28;20217;-69
2022/01/06 00:05:19;;;;;;;10.13;4.47;;;3.80;99.90;;;;;;5050910;28;20222;-69
2022/01/06 00:07:45;;;;;;;6.60;4.53;;;3.80;99.90;;;;;;5045189;28;20254;-70
2022/01/06 00:10:14;;;;;;;7.17;4.13;;;3.70;99.90;;;;;;5038811;28;20198;-70
2022/01/06 00:12:47;;;;;;;10.23;4.47;;;3.60;99.90;;;;;;5038482;28;20253;-69
2022/01/06 00:15:29;;;;;;;6.03;4.30;;;3.60;99.90;;;;;;5039782;28;20238;-69
2022/01/06 00:23:31;;;;;;;8.40;4.77;;;3.60;99.90;;;;;;5037435;28;20202;-69
2022/01/06 00:26:00;;;;;;;9.03;4.93;;;3.50;99.90;;;;;;5040240;28;20635;-69
2022/01/06 00:28:28;;;;;;;8.00;4.80;;;3.50;99.90;;;;;;5049602;28;20670;-68
2022/01/06 00:30:55;;;;;;;8.83;4.87;;;3.50;99.90;;;;;;5040516;28;20578;-69
2022/01/06 00:33:22;;;;;;;8.70;5.17;;;3.50;99.90;;;;;;5040456;28;20207;-70
2022/01/06 00:35:49;;;;;;;8.73;4.90;;;3.60;99.90;;;;;;5040000;28;20203;-69
2022/01/06 00:38:16;;;;;;;10.10;5.10;;;3.60;99.90;;;;;;5047332;28;20210;-69
2022/01/06 00:40:43;;;;;;;8.83;4.70;;;3.60;99.90;;;;;;5049598;28;20205;-67
2022/01/06 00:43:12;;;;;;;9.57;4.53;;;3.60;99.90;;;;;;5042421;28;20299;-69
2022/01/06 00:45:39;;;;;;;7.67;4.70;;;3.60;99.90;;;;;;5041190;28;20284;-68
2022/01/06 00:48:07;;;;;;;9.03;4.10;;;3.60;99.90;;;;;;5051175;28;20206;-68
2022/01/06 00:50:34;;;;;;;7.47;4.80;;;3.50;99.90;;;;;;5037697;28;20202;-69
2022/01/06 00:53:03;;;;;;;12.27;4.97;;;3.60;99.90;;;;;;5050758;28;20299;-69
2022/01/06 00:55:31;;;;;;;8.80;4.47;;;3.50;99.90;;;;;;5037805;28;20225;-69
2022/01/06 00:57:58;;;;;;;7.33;4.63;;;3.50;99.90;;;;;;5040797;28;20234;-69
2022/01/06 01:00:37;;;;;;;8.40;4.20;;;3.50;99.90;;;;;;5042403;28;20624;-68
2022/01/06 01:03:04;;;;;;;7.67;5.00;;;3.50;99.90;;;;;;5049374;28;20209;-70
2022/01/06 01:05:31;;;;;;;8.37;4.73;;;3.50;99.90;;;;;;5051435;28;20295;-68
2022/01/06 01:07:58;;;;;;;7.80;4.63;;;3.50;99.90;;;;;;5045242;28;20206;-68
2022/01/06 01:10:25;;;;;;;7.30;4.33;;;3.50;99.90;;;;;;5039401;28;20213;-68
2022/01/06 01:12:52;;;;;;;7.00;4.40;;;3.60;99.90;;;;;;5038461;28;20293;-69
2022/01/06 01:15:20;;;;;;;9.63;4.27;;;3.60;99.90;;;;;;5042617;28;20209;-68
2022/01/06 01:17:50;;;;;;;7.73;4.17;;;3.60;99.90;;;;;;5053743;28;20217;-68
2022/01/06 01:20:18;;;;;;;6.60;3.97;;;3.60;99.90;;;;;;5036833;28;20207;-67
2022/01/06 01:22:46;;;;;;;6.50;4.37;;;3.60;99.90;;;;;;5037430;28;20630;-68
2022/01/06 01:25:13;;;;;;;8.67;4.60;;;3.60;99.90;;;;;;5045005;28;20308;-69
2022/01/06 01:27:43;;;;;;;7.43;4.33;;;3.60;99.90;;;;;;5050683;28;20265;-67
2022/01/06 01:30:14;;;;;;;7.60;4.60;;;3.70;99.90;;;;;;5042949;28;20699;-68
2022/01/06 01:32:46;;;;;;;8.80;4.70;;;3.70;99.90;;;;;;5041371;28;20217;-68
2022/01/06 01:35:14;;;;;;;8.60;4.70;;;3.70;99.90;;;;;;5041614;28;20207;-69
2022/01/06 01:37:41;;;;;;;6.40;3.63;;;3.70;99.90;;;;;;5052442;28;20303;-67
2022/01/06 01:40:10;;;;;;;8.70;3.87;;;3.70;99.90;;;;;;5042989;28;20213;-69
2022/01/06 01:42:38;;;;;;;7.03;4.10;;;3.70;99.90;;;;;;5044411;28;20733;-67
2022/01/06 01:45:08;;;;;;;6.53;4.30;;;3.70;99.90;;;;;;5041605;28;20234;-68
2022/01/06 01:47:40;;;;;;;5.70;4.30;;;3.80;99.90;;;;;;5047347;28;20559;-67
2022/01/06 01:50:12;;;;;;;9.07;4.20;;;3.80;99.90;;;;;;5046592;28;20202;-68
2022/01/06 01:52:43;;;;;;;6.60;4.00;;;3.80;99.90;;;;;;5038368;28;20206;-68
2022/01/06 01:55:12;;;;;;;10.77;4.40;;;3.90;99.90;;;;;;5044732;28;20204;-67
2022/01/06 01:57:38;;;;;;;9.67;4.77;;;3.80;99.90;;;;;;5028020;28;20870;-67
2022/01/06 02:00:08;;;;;;;4.07;3.40;;;3.90;99.90;;;;;;5041660;28;20241;-67
2022/01/06 02:02:36;;;;;;;6.27;4.60;;;3.90;99.90;;;;;;5047914;28;20220;-67
2022/01/06 02:05:03;;;;;;;4.67;4.07;;;3.90;99.90;;;;;;5048951;28;20324;-67
2022/01/06 02:07:30;;;;;;;5.13;3.73;;;3.90;99.90;;;;;;5048480;28;20293;-69
2022/01/06 02:09:58;;;;;;;8.70;4.27;;;3.90;99.90;;;;;;5034894;28;20210;-68
2022/01/06 02:12:27;;;;;;;5.80;4.40;;;3.80;99.90;;;;;;5029917;28;20213;-69
2022/01/06 02:14:54;;;;;;;8.50;4.27;;;3.80;99.90;;;;;;5039714;28;20210;-69
2022/01/06 02:17:21;;;;;;;8.63;3.83;;;3.80;99.90;;;;;;5039848;28;20288;-68
2022/01/06 02:19:56;;;;;;;6.33;3.63;;;3.80;99.90;;;;;;5047195;28;20763;-68
2022/01/06 02:22:24;;;;;;;8.97;3.90;;;3.80;99.90;;;;;;5040240;28;20205;-68
2022/01/06 02:24:51;;;;;;;6.37;3.77;;;3.90;99.90;;;;;;5043642;28;20230;-68
2022/01/06 02:27:20;;;;;;;5.90;3.83;;;3.90;99.90;;;;;;5049200;28;20210;-68
2022/01/06 02:29:47;;;;;;;6.50;3.60;;;3.80;99.90;;;;;;5050870;28;20256;-68
2022/01/06 02:32:16;;;;;;;7.47;4.13;;;3.90;99.90;;;;;;5052817;28;20245;-68
2022/01/06 02:34:44;;;;;;;4.70;3.33;;;3.90;99.90;;;;;;5040956;28;20226;-69
2022/01/06 02:37:13;;;;;;;5.10;3.73;;;3.90;99.90;;;;;;5044978;28;20234;-69
2022/01/06 02:39:40;;;;;;;5.87;3.83;;;3.90;99.90;;;;;;5052366;28;20651;-68
2022/01/06 02:42:08;;;;;;;4.07;3.43;;;3.90;99.90;;;;;;5043748;28;20285;-68
2022/01/06 02:44:37;;;;;;;4.87;3.13;;;3.90;99.90;;;;;;5040804;28;20262;-68
2022/01/06 02:47:05;;;;;;;4.43;3.00;;;3.90;99.90;;;;;;5039893;28;20202;-69
2022/01/06 02:49:32;;;;;;;7.00;3.50;;;3.90;99.90;;;;;;5045829;28;20257;-69
2022/01/06 02:51:59;;;;;;;5.43;3.70;;;3.90;99.90;;;;;;5034865;28;20214;-69
2022/01/06 02:54:27;;;;;;;4.50;3.60;;;3.90;99.90;;;;;;5035850;28;20559;-68
2022/01/06 02:56:54;;;;;;;4.47;3.00;;;3.90;99.90;;;;;;5032929;28;20253;-69
2022/01/06 02:59:21;;;;;;;3.53;3.20;;;3.90;99.90;;;;;;5041682;28;20648;-68
2022/01/06 03:01:48;;;;;;;7.83;3.90;;;4.00;99.90;;;;;;5034400;28;20649;-68
2022/01/06 03:04:15;;;;;;;3.70;3.13;;;3.90;99.90;;;;;;5034327;28;20272;-69
2022/01/06 03:06:43;;;;;;;3.33;2.77;;;3.90;99.90;;;;;;5035253;28;20220;-69
2022/01/06 03:09:11;;;;;;;4.13;2.83;;;3.90;99.90;;;;;;5039171;28;20226;-69
2022/01/06 03:11:42;;;;;;;4.67;3.07;;;4.00;99.90;;;;;;5043848;28;20210;-69
2022/01/06 03:14:09;;;;;;;4.70;3.37;;;4.00;99.90;;;;;;5040097;28;20289;-68
2022/01/06 03:16:36;;;;;;;4.13;3.13;;;4.00;99.90;;;;;;5043088;28;20198;-69
2022/01/06 03:19:03;;;;;;;5.90;3.37;;;4.00;99.90;;;;;;5050965;28;20283;-68
2022/01/06 03:21:30;;;;;;;5.40;3.43;;;4.00;99.90;;;;;;5038885;28;20294;-69
2022/01/06 03:23:57;;;;;;;5.67;3.43;;;4.00;99.90;;;;;;5044251;28;20206;-69
2022/01/06 03:26:24;;;;;;;5.77;3.13;;;3.90;99.90;;;;;;5046979;28;20331;-68
2022/01/06 03:28:53;;;;;;;3.90;3.10;;;3.90;99.90;;;;;;5049672;28;20217;-69
2022/01/06 03:31:20;;;;;;;4.90;3.30;;;3.90;99.90;;;;;;5038603;28;20210;-68
2022/01/06 03:33:47;;;;;;;6.43;3.60;;;3.90;99.90;;;;;;5053083;28;20205;-69
2022/01/06 03:36:14;;;;;;;3.20;2.67;;;3.90;99.90;;;;;;5041746;28;20304;-68
2022/01/06 03:38:41;;;;;;;4.73;3.47;;;3.90;99.90;;;;;;5051033;28;20269;-69
2022/01/06 03:41:08;;;;;;;4.60;3.10;;;5.10;99.90;;;;;;5051536;28;20208;-69
2022/01/06 03:43:34;;;;;;;3.43;3.13;;;3.90;99.90;;;;;;5047087;28;20648;-68
2022/01/06 03:46:03;;;;;;;3.53;3.23;;;3.90;99.90;;;;;;5042838;28;20225;-69
2022/01/06 03:48:30;;;;;;;6.33;3.50;;;3.90;99.90;;;;;;5045894;28;20711;-69
2022/01/06 03:50:57;;;;;;;4.63;3.43;;;3.90;99.90;;;;;;5034502;28;20220;-69
2022/01/06 03:53:23;;;;;;;4.50;3.30;;;3.90;99.90;;;;;;5028314;28;20202;-68
2022/01/06 03:55:50;;;;;;;6.00;3.90;;;3.90;99.90;;;;;;5044681;28;20214;-67
2022/01/06 03:58:17;;;;;;;6.77;3.87;;;3.90;99.90;;;;;;5033587;28;20216;-69
2022/01/06 04:00:44;;;;;;;4.40;3.40;;;3.90;99.90;;;;;;5033516;28;20210;-68
2022/01/06 04:03:12;;;;;;;4.20;3.17;;;3.90;99.90;;;;;;5032413;28;20206;-68
2022/01/06 04:05:39;;;;;;;5.77;3.63;;;3.90;99.90;;;;;;5031202;28;20737;-68
2022/01/06 04:08:06;;;;;;;5.30;3.80;;;3.90;99.90;;;;;;5033457;28;20214;-67
2022/01/06 04:10:33;;;;;;;6.90;3.70;;;3.80;99.90;;;;;;5032981;28;20203;-68
2022/01/06 04:13:00;;;;;;;4.27;3.87;;;3.80;99.90;;;;;;5031663;28;20214;-68
2022/01/06 04:15:27;;;;;;;5.63;3.67;;;3.80;99.90;;;;;;5038313;28;20210;-68
2022/01/06 04:17:54;;;;;;;5.73;3.80;;;3.90;99.90;;;;;;5056217;28;20292;-69
2022/01/06 04:20:22;;;;;;;5.17;3.23;;;3.90;99.90;;;;;;5042767;28;20212;-69
2022/01/06 04:22:49;;;;;;;5.40;4.17;;;3.90;99.90;;;;;;5048074;28;20275;-68
2022/01/06 04:25:16;;;;;;;5.20;3.43;;;3.90;99.90;;;;;;5045823;28;20237;-68
2022/01/06 04:27:43;;;;;;;4.67;3.40;;;3.90;99.90;;;;;;5053255;28;20279;-68
2022/01/06 04:30:11;;;;;;;5.33;3.30;;;3.80;99.90;;;;;;5048479;28;20577;-68
2022/01/06 04:32:39;;;;;;;5.70;3.90;;;3.80;99.90;;;;;;5042166;28;20233;-68
2022/01/06 04:35:07;;;;;;;3.70;3.40;;;3.80;99.90;;;;;;5045874;28;20216;-67
2022/01/06 04:37:35;;;;;;;4.43;3.83;;;3.80;99.90;;;;;;5038536;28;20237;-68
2022/01/06 04:40:03;;;;;;;4.93;3.50;;;3.70;99.90;;;;;;5047122;28;20236;-68
2022/01/06 04:42:29;;;;;;;4.87;3.50;;;3.80;99.90;;;;;;5048375;28;20228;-69
2022/01/06 04:44:56;;;;;;;4.40;3.37;;;3.80;99.90;;;;;;5050340;28;20202;-68
2022/01/06 04:47:23;;;;;;;5.17;3.83;;;3.80;99.90;;;;;;5054088;28;20202;-68
2022/01/06 04:49:50;;;;;;;5.27;3.83;;;3.80;99.90;;;;;;5041448;28;20648;-68
2022/01/06 04:52:17;;;;;;;4.67;3.67;;;3.80;99.90;;;;;;5044312;28;20297;-69
2022/01/06 04:54:45;;;;;;;4.73;3.67;;;3.80;99.90;;;;;;5040693;28;20219;-68
2022/01/06 04:57:12;;;;;;;4.77;3.30;;;3.80;99.90;;;;;;5035726;28;20226;-68
2022/01/06 04:59:39;;;;;;;5.07;3.60;;;3.80;99.90;;;;;;5035873;28;20298;-68
2022/01/06 05:02:06;;;;;;;3.97;3.20;;;3.80;99.90;;;;;;5044525;28;20608;-68
2022/01/06 05:04:33;;;;;;;3.57;3.13;;;3.90;99.90;;;;;;5036611;28;20207;-68
2022/01/06 05:07:00;;;;;;;3.97;3.20;;;3.80;99.90;;;;;;5035321;28;20323;-69
2022/01/06 05:09:27;;;;;;;4.00;3.57;;;3.80;99.90;;;;;;5040797;28;20298;-69
2022/01/06 05:11:55;;;;;;;3.83;3.40;;;3.80;99.90;;;;;;5037627;28;20213;-68
2022/01/06 05:14:22;;;;;;;5.10;3.43;;;3.80;99.90;;;;;;5040717;28;20202;-67
2022/01/06 05:16:49;;;;;;;4.80;3.63;;;3.80;99.90;;;;;;5045242;28;20212;-69
2022/01/06 05:19:16;;;;;;;3.80;3.40;;;3.80;99.90;;;;;;5037389;28;20203;-67
2022/01/06 05:21:43;;;;;;;4.23;3.83;;;3.80;99.90;;;;;;5040898;28;20667;-67
2022/01/06 05:24:13;;;;;;;4.30;3.37;;;3.80;99.90;;;;;;5045185;28;20260;-68
2022/01/06 05:26:40;;;;;;;5.53;3.90;;;3.80;99.90;;;;;;5045528;28;20221;-68
2022/01/06 05:29:09;;;;;;;4.47;3.70;;;3.80;99.90;;;;;;5051328;28;20297;-68
2022/01/06 05:31:36;;;;;;;4.50;3.73;;;3.70;99.90;;;;;;5033381;28;20220;-68
2022/01/06 05:34:04;;;;;;;4.23;3.67;;;3.70;99.90;;;;;;5045123;28;20221;-68
2022/01/06 05:36:31;;;;;;;6.03;4.27;;;3.70;99.90;;;;;;5042461;28;20732;-68
2022/01/06 05:38:58;;;;;;;6.53;4.30;;;3.70;99.90;;;;;;5047453;28;20198;-68
2022/01/06 05:41:25;;;;;;;5.17;3.77;;;3.80;99.90;;;;;;5049199;28;20211;-68
2022/01/06 05:43:52;;;;;;;5.23;3.73;;;3.80;99.90;;;;;;5044807;28;20294;-68
2022/01/06 05:46:20;;;;;;;7.13;3.97;;;3.70;99.90;;;;;;5041200;28;20676;-68
2022/01/06 05:48:47;;;;;;;5.13;3.73;;;3.80;99.90;;;;;;5045732;28;20646;-69
2022/01/06 05:51:15;;;;;;;5.50;4.00;;;3.80;99.90;;;;;;5034864;28;20655;-68
2022/01/06 05:53:42;;;;;;;4.23;3.83;;;3.80;99.90;;;;;;5052622;28;20731;-69
2022/01/06 05:56:09;;;;;;;4.53;3.60;;;3.80;99.90;;;;;;5044345;28;20308;-67
2022/01/06 05:58:39;;;;;;;3.80;3.40;;;3.80;99.90;;;;;;5039861;28;20209;-68
2022/01/06 06:01:07;;;;;;;3.57;3.27;;;3.80;99.90;;;;;;5046003;28;20210;-68
2022/01/06 06:03:35;;;;;;;3.47;2.93;;;3.80;99.90;;;;;;5047670;28;20206;-68
2022/01/06 06:06:02;;;;;;;3.17;2.67;;;3.80;99.90;;;;;;5054400;28;20225;-69
2022/01/06 06:08:29;;;;;;;3.50;2.87;;;3.80;99.90;;;;;;5049623;28;20201;-67
2022/01/06 06:10:55;;;;;;;3.50;2.83;;;3.40;99.90;;;;;;5036808;28;20214;-67
2022/01/06 06:13:22;;;;;;;4.20;2.53;;;3.80;99.90;;;;;;5041854;28;20293;-68
2022/01/06 06:15:49;;;;;;;3.50;2.70;;;3.80;99.90;;;;;;5044074;28;20210;-67
2022/01/06 06:18:16;;;;;;;4.00;2.70;;;3.80;99.90;;;;;;5053814;28;20233;-67
2022/01/06 06:20:44;;;;;;;3.23;2.93;;;3.80;99.90;;;;;;5046771;28;20206;-67
2022/01/06 06:23:11;;;;;;;5.10;3.20;;;3.80;99.90;;;;;;5049290;28;20713;-68
2022/01/06 06:25:38;;;;;;;3.17;2.60;;;3.80;99.90;;;;;;5038967;28;20273;-67
2022/01/06 06:28:05;;;;;;;2.80;2.50;;;3.80;99.90;;;;;;5047027;28;20561;-69
2022/01/06 06:30:32;;;;;;;2.57;2.30;;;3.80;99.90;;;;;;5041776;28;20593;-68
2022/01/06 06:33:01;;;;;;;3.30;2.70;;;3.80;99.90;;;;;;5039208;28;20331;-68
2022/01/06 06:35:28;;;;;;;4.13;2.70;;;3.80;99.90;;;;;;5043264;28;20211;-68
2022/01/06 06:37:56;;;;;;;2.77;2.47;;;3.80;99.90;;;;;;5046063;28;20242;-67
2022/01/06 06:40:23;;;;;;;2.93;2.53;;;3.70;99.90;;;;;;5035231;28;20213;-68
2022/01/06 06:42:50;;;;;;;3.43;2.57;;;3.80;99.90;;;;;;5039746;28;20209;-67
2022/01/06 06:45:17;;;;;;;3.67;2.80;;;3.70;99.90;;;;;;5034771;28;20280;-68
2022/01/06 06:47:44;;;;;;;3.63;2.80;;;3.70;99.90;;;;;;5038365;28;20230;-69
2022/01/06 06:50:14;;;;;;;2.87;2.57;;;3.80;99.90;;;;;;5039487;28;20233;-68
2022/01/06 06:52:41;;;;;;;3.20;2.70;;;3.80;99.90;;;;;;5042986;28;20722;-68
2022/01/06 06:55:10;;;;;;;4.87;2.50;;;3.80;99.90;;;;;;5047133;28;20208;-67
2022/01/06 06:57:37;;;;;;;4.57;2.90;;;3.80;99.90;;;;;;5031324;28;20313;-68
2022/01/06 07:00:05;;;;;;;3.93;2.73;;;3.80;99.90;;;;;;5035444;28;20210;-68
2022/01/06 07:02:32;;;;;;;3.07;2.77;;;3.80;99.90;;;;;;5040118;28;20289;-68
2022/01/06 07:04:59;;;;;;;2.97;2.60;;;3.80;99.90;;;;;;5045755;28;20213;-68
2022/01/06 07:07:26;;;;;;;4.23;2.60;;;3.80;99.90;;;;;;5045911;28;20582;-68
2022/01/06 07:09:53;;;;;;;4.33;3.07;;;3.80;99.90;;;;;;5053329;28;20230;-69
2022/01/06 07:12:22;;;;;;;3.80;2.90;;;3.80;99.90;;;;;;5037795;28;20207;-69
2022/01/06 07:14:48;;;;;;;5.70;2.50;;;3.80;99.90;;;;;;5030923;28;20254;-68
2022/01/06 07:17:15;;;;;;;3.10;2.80;;;3.80;99.90;;;;;;5040950;28;20285;-69
2022/01/06 07:19:42;;;;;;;2.87;2.40;;;3.80;99.90;;;;;;5044862;28;20207;-68
2022/01/06 07:22:09;;;;;;;4.40;2.90;;;3.70;99.90;;;;;;5039231;28;20217;-69
2022/01/06 07:24:37;;;;;;;4.17;2.60;;;3.70;99.90;;;;;;5046818;28;20293;-68
2022/01/06 07:27:05;;;;;;;4.13;2.80;;;3.70;99.90;;;;;;5050240;28;20697;-68
2022/01/06 07:29:33;;;;;;;2.53;2.30;;;3.70;99.90;;;;;;5040264;28;20322;-68
2022/01/06 07:32:00;;;;;;;4.57;2.93;;;3.70;99.90;;;;;;5033164;28;20213;-68
2022/01/06 07:34:27;;;;;;;4.17;2.63;;;3.70;99.90;;;;;;5042946;28;20197;-69
2022/01/06 07:36:53;;;;;;;2.70;2.33;;;3.70;99.90;;;;;;5043952;28;20332;-69
2022/01/06 07:39:20;;;;;;;2.80;2.23;;;3.80;99.90;;;;;;5048572;28;20210;-69
2022/01/06 07:41:47;;;;;;;3.87;2.47;;;3.70;99.90;;;;;;5046403;28;20300;-69
2022/01/06 07:44:14;;;;;;;4.00;2.60;;;3.80;99.90;;;;;;5032661;28;20214;-69
2022/01/06 07:46:45;;;;;;;3.70;2.23;;;3.80;99.90;;;;;;5039646;28;20328;-69
2022/01/06 07:49:12;;;;;;;2.90;2.40;;;3.80;99.90;;;;;;5045286;28;20563;-69
2022/01/06 07:51:39;;;;;;;2.30;1.90;;;3.80;99.90;;;;;;5034061;28;20545;-69
2022/01/06 07:54:06;;;;;;;3.97;2.37;;;3.80;99.90;;;;;;5044696;28;20286;-67
2022/01/06 07:56:34;;;;;;;3.07;2.10;;;3.80;99.90;;;;;;5034299;28;20276;-67
2022/01/06 07:59:01;;;;;;;2.37;1.90;;;3.80;99.90;;;;;;5035182;28;20218;-74
2022/01/06 08:01:28;;;;;;;3.67;1.80;;;3.70;99.90;;;;;;5036338;28;20217;-74
2022/01/06 08:03:56;;;;;;;2.93;1.63;;;3.70;99.90;;;;;;5046374;28;20210;-72
2022/01/06 08:06:23;;;;;;;3.17;1.67;;;3.70;99.90;;;;;;5043839;28;20241;-73
2022/01/06 08:08:50;;;;;;;2.33;1.50;;;3.70;99.90;;;;;;5042633;28;20682;-72
2022/01/06 08:11:17;;;;;;;3.03;1.63;;;3.60;99.90;;;;;;5036397;28;20286;-71
2022/01/06 08:13:44;;;;;;;3.13;1.97;;;3.60;99.90;;;;;;5038871;28;20203;-72
2022/01/06 08:16:11;;;;;;;4.07;2.13;;;3.50;99.90;;;;;;5046881;28;20695;-70
2022/01/06 08:18:38;;;;;;;2.70;1.63;;;3.50;99.90;;;;;;5044307;28;20213;-70
2022/01/06 08:21:07;;;;;;;3.17;1.60;;;3.60;99.90;;;;;;5051847;28;20205;-72
2022/01/06 08:23:34;;;;;;;3.43;2.10;;;3.50;99.90;;;;;;5038698;28;20273;-72
2022/01/06 08:26:01;;;;;;;2.27;1.70;;;3.40;99.90;;;;;;5048861;28;20214;-72
2022/01/06 08:28:28;;;;;;;2.60;1.90;;;3.40;99.90;;;;;;5042312;28;20686;-71
2022/01/06 08:30:55;;;;;;;2.77;2.20;;;3.40;99.90;;;;;;5039969;28;20192;-71
2022/01/06 08:33:22;;;;;;;2.27;2.00;;;3.40;99.90;;;;;;5044431;28;20262;-71
2022/01/06 08:35:48;;;;;;;2.03;1.70;;;3.40;99.90;;;;;;5038976;28;20213;-72
2022/01/06 08:38:17;;;;;;;4.10;2.40;;;3.40;99.90;;;;;;5047099;28;20205;-72
2022/01/06 08:40:44;;;;;;;3.23;2.50;;;3.30;99.90;;;;;;5035565;28;20206;-75
2022/01/06 08:43:11;;;;;;;5.00;2.50;;;2.90;99.90;;;;;;5039170;28;20221;-73
2022/01/06 08:45:38;;;;;;;2.80;2.00;;;3.40;99.90;;;;;;5038526;28;20211;-73
2022/01/06 08:48:06;;;;;;;4.73;2.43;;;3.40;99.90;;;;;;5043932;28;20321;-73
2022/01/06 08:50:33;;;;;;;3.57;2.60;;;3.40;99.90;;;;;;5044383;28;20263;-73
2022/01/06 08:53:00;;;;;;;3.97;2.30;;;3.40;99.90;;;;;;5046319;28;20229;-73
2022/01/06 08:55:28;;;;;;;4.63;2.43;;;3.40;99.90;;;;;;5041093;28;20286;-72
2022/01/06 08:57:57;;;;;;;2.63;2.07;;;3.50;99.90;;;;;;5039610;28;20219;-74
2022/01/06 09:00:24;;;;;;;3.17;2.20;;;3.50;99.90;;;;;;5045811;28;20203;-73
2022/01/06 09:02:51;;;;;;;4.10;2.27;;;3.50;99.90;;;;;;5049764;28;20257;-73
2022/01/06 09:05:18;;;;;;;3.53;2.00;;;3.60;99.90;;;;;;5028677;28;20266;-74
2022/01/06 09:07:45;;;;;;;4.40;3.00;;;3.60;99.90;;;;;;5042091;28;20226;-74
2022/01/06 09:10:12;;;;;;;3.17;2.50;;;3.60;99.90;;;;;;5038778;28;20207;-70
2022/01/06 09:12:41;;;;;;;3.33;2.80;;;3.60;99.90;;;;;;5033839;28;20257;-73
2022/01/06 09:15:10;;;;;;;4.37;2.67;;;3.60;99.90;;;;;;5045554;28;20251;-69
2022/01/06 09:17:38;;;;;;;3.30;3.00;;;3.70;99.90;;;;;;5036379;28;20405;-72
2022/01/06 09:20:07;;;;;;;4.43;3.43;;;3.60;99.90;;;;;;5052073;28;20221;-72
2022/01/06 09:22:34;;;;;;;5.97;3.00;;;3.60;99.90;;;;;;5054910;28;20385;-71
2022/01/06 09:25:01;;;;;;;4.20;3.17;;;3.60;99.90;;;;;;5038931;28;20637;-72
2022/01/06 09:27:30;;;;;;;3.33;3.03;;;3.60;99.90;;;;;;5046180;28;20225;-69
2022/01/06 09:29:59;;;;;;;8.07;2.97;;;3.60;99.90;;;;;;5047278;28;20210;-72
2022/01/06 09:32:27;;;;;;;2.93;2.63;;;3.60;99.90;;;;;;5048398;28;20743;-71
2022/01/06 09:34:54;;;;;;;8.53;3.17;;;3.50;99.90;;;;;;5045508;28;20238;-71
2022/01/06 09:37:21;;;;;;;3.80;3.40;;;3.50;99.90;;;;;;5040208;28;20628;-70
2022/01/06 09:39:48;;;;;;;5.60;2.97;;;3.50;99.90;;;;;;5049294;28;20293;-71
2022/01/06 09:42:15;;;;;;;4.87;3.00;;;3.50;99.90;;;;;;5034238;28;20664;-73
2022/01/06 09:44:44;;;;;;;4.83;2.67;;;3.50;99.90;;;;;;5035120;28;20221;-72
2022/01/06 09:47:12;;;;;;;6.33;2.60;;;3.50;99.90;;;;;;5039598;28;20289;-72
2022/01/06 09:49:42;;;;;;;3.33;2.80;;;3.50;99.90;;;;;;5049586;28;20673;-75
2022/01/06 09:52:10;;;;;;;5.30;2.80;;;3.40;99.90;;;;;;5036339;28;20206;-70
2022/01/06 09:54:39;;;;;;;3.90;2.40;;;3.50;99.90;;;;;;5048177;28;20270;-73
2022/01/06 09:57:07;;;;;;;3.83;2.40;;;3.50;99.90;;;;;;5038882;28;20278;-72
2022/01/06 09:59:34;;;;;;;4.90;2.60;;;3.40;99.90;;;;;;5041575;28;20293;-72
2022/01/06 10:02:01;;;;;;;4.63;2.73;;;3.50;99.90;;;;;;5044475;28;20296;-69
2022/01/06 10:04:30;;;;;;;3.80;2.97;;;3.50;99.90;;;;;;5053093;28;20204;-69
2022/01/06 10:07:02;;;;;;;4.33;2.80;;;3.50;99.90;;;;;;5049807;28;20309;-68
2022/01/06 10:09:29;;;;;;;5.13;3.00;;;3.50;99.90;;;;;;5038575;28;20586;-70
2022/01/06 10:11:57;;;;;;;5.07;2.50;;;3.50;99.90;;;;;;5042909;28;20245;-71
2022/01/06 10:14:37;;;;;;;4.60;2.83;;;3.50;99.90;;;;;;5036842;28;20206;-71
2022/01/06 10:17:04;;;;;;;5.53;3.03;;;3.40;99.90;;;;;;5039921;28;20659;-70
2022/01/06 10:19:36;;;;;;;8.07;3.50;;;3.40;99.90;;;;;;5033525;28;20245;-70
2022/01/06 10:22:03;;;;;;;5.30;3.20;;;3.40;99.90;;;;;;5033783;28;20286;-69
2022/01/06 10:24:30;;;;;;;4.93;3.20;;;3.40;99.90;;;;;;5034917;28;20650;-70
2022/01/06 10:27:00;;;;;;;7.07;4.37;;;3.40;99.90;;;;;;5045777;28;20222;-73
2022/01/06 10:29:33;;;;;;;5.57;3.90;;;3.30;99.90;;;;;;5049455;28;20624;-71
2022/01/06 10:32:05;;;;;;;4.67;3.67;;;3.30;99.90;;;;;;5047657;28;20198;-70
2022/01/06 10:34:36;;;;;;;7.67;3.77;;;3.30;99.90;;;;;;5045045;28;20213;-70
2022/01/06 10:37:05;;;;;;;6.47;3.57;;;3.40;99.90;;;;;;5042001;28;20665;-69
2022/01/06 10:39:41;;;;;;;6.03;4.00;;;3.40;99.90;;;;;;5035989;28;20202;-70
2022/01/06 10:42:09;;;;;;;6.30;3.50;;;3.40;99.90;;;;;;5042844;28;20213;-70
2022/01/06 10:44:49;;;;;;;4.63;3.37;;;3.40;99.90;;;;;;5028676;28;20286;-69
2022/01/06 10:47:29;;;;;;;6.97;3.37;;;3.40;99.90;;;;;;5038737;28;20226;-73
2022/01/06 10:50:09;;;;;;;6.80;3.50;;;3.50;99.90;;;;;;5032189;28;20207;-69
2022/01/06 10:52:39;;;;;;;6.20;3.93;;;3.50;99.90;;;;;;5030574;28;20234;-69
2022/01/06 10:55:11;;;;;;;6.50;3.73;;;3.50;99.90;;;;;;5036782;28;20217;-71
2022/01/06 10:57:39;;;;;;;7.27;3.50;;;3.40;99.90;;;;;;5038560;28;20288;-67
2022/01/06 11:00:08;;;;;;;7.10;3.70;;;3.30;99.90;;;;;;5047181;28;20237;-71
2022/01/06 11:02:34;;;;;;;6.07;3.40;;;3.30;99.90;;;;;;5047041;28;20270;-71
2022/01/06 11:05:01;;;;;;;6.23;3.43;;;3.20;99.90;;;;;;5037629;28;20220;-70
2022/01/06 11:07:30;;;;;;;5.47;3.27;;;3.20;99.90;;;;;;5047955;28;20226;-69
2022/01/06 11:09:58;;;;;;;7.97;3.60;;;3.20;99.90;;;;;;5038301;28;20238;-69
2022/01/06 11:12:30;;;;;;;7.03;3.70;;;3.10;99.90;;;;;;5043643;28;20202;-69
2022/01/06 11:14:57;;;;;;;11.83;3.93;;;3.20;99.90;;;;;;5043147;28;20210;-70
2022/01/06 11:17:24;;;;;;;7.13;3.50;;;3.10;99.90;;;;;;5038812;28;20573;-69
2022/01/06 11:19:52;;;;;;;7.57;3.47;;;3.10;99.90;;;;;;5030812;28;20243;-70
2022/01/06 11:22:24;;;;;;;5.63;3.60;;;3.10;99.90;;;;;;5042900;28;20207;-70
2022/01/06 11:24:57;;;;;;;7.90;3.83;;;3.10;99.90;;;;;;5041823;28;20313;-68
2022/01/06 11:27:33;;;;;;;7.00;3.90;;;3.10;99.90;;;;;;5032756;28;20219;-70
2022/01/06 11:30:10;;;;;;;7.27;3.83;;;3.00;99.90;;;;;;5042132;28;20213;-70
2022/01/06 11:32:37;;;;;;;8.10;3.83;;;3.00;99.90;;;;;;5038739;28;20262;-71
2022/01/06 11:35:07;;;;;;;6.27;3.37;;;3.00;99.90;;;;;;5039007;28;20634;-71
2022/01/06 11:37:41;;;;;;;8.93;4.37;;;2.90;99.90;;;;;;5035351;28;20226;-70
2022/01/06 11:40:11;;;;;;;6.93;4.10;;;2.90;99.90;;;;;;5030996;28;20654;-72
2022/01/06 11:42:38;;;;;;;5.93;3.63;;;2.80;99.90;;;;;;5050623;28;20528;-70
2022/01/06 11:45:06;;;;;;;7.70;4.67;;;2.80;99.90;;;;;;5041125;28;20576;-69
2022/01/06 11:47:35;;;;;;;7.33;4.10;;;2.90;99.90;;;;;;5035715;28;20305;-70
2022/01/06 11:50:13;;;;;;;8.20;4.37;;;2.90;99.90;;;;;;5043192;28;20214;-69
2022/01/06 11:52:51;;;;;;;5.90;4.33;;;2.90;99.90;;;;;;5032227;28;20297;-69
2022/01/06 11:55:20;;;;;;;10.07;4.70;;;2.90;99.90;;;;;;5031459;28;20320;-69
2022/01/06 11:57:47;;;;;;;7.67;4.47;;;2.90;99.90;;;;;;5033639;28;20226;-69
2022/01/06 12:00:17;;;;;;;9.00;5.10;;;2.80;99.90;;;;;;5031691;28;20359;-71
2022/01/06 12:02:55;;;;;;;7.93;4.23;;;2.90;99.90;;;;;;5040966;28;20639;-70
2022/01/06 12:05:22;;;;;;;4.07;3.67;;;2.80;99.90;;;;;;5050095;28;20279;-70
2022/01/06 12:07:51;;;;;;;5.53;3.93;;;2.80;99.90;;;;;;5044888;28;20236;-70
2022/01/06 12:10:21;;;;;;;3.83;2.80;;;2.70;99.90;;;;;;5042404;28;20210;-70
2022/01/06 12:12:50;;;;;;;4.17;2.90;;;2.60;99.90;;;;;;5041090;28;20303;-69
2022/01/06 12:15:19;;;;;;;3.83;2.37;;;2.60;99.90;;;;;;5036961;28;20632;-69
2022/01/06 12:17:48;;;;;;;6.20;2.60;;;2.60;99.90;;;;;;5038184;28;20205;-70
2022/01/06 12:20:24;;;;;;;3.33;2.30;;;2.50;99.90;;;;;;5046509;28;20610;-70
2022/01/06 12:22:52;;;;;;;3.00;2.53;;;2.50;99.90;;;;;;5033178;28;20210;-69
2022/01/06 12:25:24;;;;;;;4.00;2.67;;;2.40;99.90;;;;;;5048470;28;20692;-70
2022/01/06 12:27:53;;;;;;;2.57;2.20;;;2.30;99.90;;;;;;5041610;28;20639;-69
2022/01/06 12:30:21;;;;;;;5.03;2.33;;;2.30;99.90;;;;;;5034206;28;20202;-69
2022/01/06 12:32:59;;;;;;;4.23;1.83;;;2.30;99.90;;;;;;5048060;28;20660;-69
2022/01/06 12:35:44;;;;;;;5.43;2.20;;;2.30;99.90;;;;;;5040916;28;20586;-68
2022/01/06 12:38:13;;;;;;;2.07;1.87;;;2.20;99.90;;;;;;5036947;28;20329;-72
2022/01/06 12:40:43;;;;;;;3.23;2.30;;;2.20;99.90;;;;;;5053768;28;20213;-70
2022/01/06 12:43:18;;;;;;;2.90;1.73;;;2.10;99.90;;;;;;5037062;28;20290;-70
2022/01/06 12:45:45;;;;;;;3.67;2.00;;;2.10;99.90;;;;;;5042371;28;20288;-69
2022/01/06 12:48:13;;;;;;;2.60;1.77;;;2.10;99.90;;;;;;5047286;28;20223;-69
2022/01/06 12:50:50;;;;;;;2.77;1.60;;;2.00;99.90;;;;;;5046185;28;20210;-70
2022/01/06 12:53:27;;;;;;;4.00;2.00;;;1.90;99.90;;;;;;5045552;28;20647;-70
2022/01/06 12:55:56;;;;;;;5.37;1.90;;;1.80;99.90;;;;;;5043574;28;20213;-70
2022/01/06 12:58:28;;;;;;;4.47;1.90;;;1.60;99.90;;;;;;5041392;28;20301;-70
2022/01/06 13:00:57;;;;;;;2.93;1.70;;;1.60;99.90;;;;;;5052133;28;20289;-69
2022/01/06 13:03:31;;;;;;;4.20;1.87;;;1.50;99.90;;;;;;5046698;28;20285;-70
2022/01/06 13:05:59;;;;;;;4.17;1.90;;;1.40;99.90;;;;;;5044234;28;20212;-69
2022/01/06 13:08:28;;;;;;;4.07;1.83;;;1.30;99.90;;;;;;5045807;28;20235;-70